This is the latest recevied weather packets stored in our database for station/object OE3AOG. If no packets are shown the sender has not sent any weather packets the latest 10 day(s).
| Time | Temp. | Humidity | Pressure | Rain* | Wind** | Luminosity | Snow |
|---|---|---|---|---|---|---|---|
| 1777658116 | 16.67° C | 43% | 1023.8 hPa | 0 mm | - | 9 W/m² | - |
| 1777656916 | 17.78° C | 40% | 1023.7 hPa | 0 mm | - | 20 W/m² | - |
| 1777654516 | 18.89° C | 37% | 1023.9 hPa | 0 mm | - | 44 W/m² | - |
| 1777652724 | 18.89° C | 37% | 1024 hPa | 0 mm | - | 66 W/m² | - |
| 1777651516 | 18.89° C | 37% | 1024.1 hPa | 0 mm | - | 84 W/m² | - |
| 1777650924 | 18.33° C | 37% | 1024.2 hPa | 0 mm | - | 71 W/m² | - |
| 1777649716 | 18.33° C | 37% | 1024.4 hPa | 0 mm | - | 123 W/m² | - |
| 1777649125 | 18.89° C | 35% | 1024.5 hPa | 0 mm | - | 72 W/m² | - |
| 1777648516 | 19.44° C | 35% | 1024.6 hPa | 0 mm | - | 322 W/m² | - |
| 1777647924 | 20° C | 34% | 1024.7 hPa | 0 mm | - | 108 W/m² | - |
| 1777647324 | 20.56° C | 33% | 1024.7 hPa | 0 mm | - | 265 W/m² | - |
| 1777646724 | 20.56° C | 33% | 1024.6 hPa | 0 mm | - | 477 W/m² | - |
| 1777646116 | 20° C | 34% | 1024.8 hPa | 0 mm | - | 477 W/m² | - |
| 1777645516 | 19.44° C | 34% | 1024.8 hPa | 0 mm | - | 471 W/m² | - |
| 1777644924 | 19.44° C | 34% | 1024.9 hPa | 0 mm | - | 243 W/m² | - |
| 1777644316 | 19.44° C | 35% | 1025.1 hPa | 0 mm | - | 584 W/m² | - |
| 1777643724 | 18.89° C | 36% | 1025.1 hPa | 0 mm | - | 386 W/m² | - |
| 1777643117 | 20° C | 34% | 1025.2 hPa | 0 mm | - | 228 W/m² | - |
| 1777642524 | 18.33° C | 36% | 1025.3 hPa | 0 mm | - | 471 W/m² | - |
| 1777641916 | 18.89° C | 35% | 1025.4 hPa | 0 mm | - | 200 W/m² | - |
| 1777641324 | 18.89° C | 35% | 1025.5 hPa | 0 mm | - | 604 W/m² | - |
| 1777639517 | 18.89° C | 34% | 1025.8 hPa | 0 mm | - | 416 W/m² | - |
| 1777638925 | 18.33° C | 35% | 1026 hPa | 0 mm | - | 583 W/m² | - |
| 1777638332 | 18.89° C | 35% | 1026 hPa | 0 mm | - | 716 W/m² | - |
| 1777637117 | 18.89° C | 34% | 1026.3 hPa | 0 mm | - | 522 W/m² | - |
* Rain latest hour (hover to see other rain measurements)
** Current wind speed in m/s (hover to see current wind gust speed)